createdAt,value
2023-03-21T00:01:03.829Z,0.38
2023-03-21T00:03:33.820Z,0.36
2023-03-21T00:06:06.659Z,0.33
2023-03-21T00:08:34.902Z,0.33
2023-03-21T00:11:05.996Z,0.30
2023-03-21T00:13:38.698Z,0.26
2023-03-21T00:16:20.969Z,0.24
2023-03-21T00:18:55.140Z,0.21
2023-03-21T00:27:44.810Z,0.19
2023-03-21T00:30:12.812Z,0.16
2023-03-21T00:32:53.293Z,0.15
2023-03-21T00:36:12.373Z,0.14
2023-03-21T00:38:12.762Z,0.14
2023-03-21T00:40:48.752Z,0.15
2023-03-21T00:43:23.550Z,0.15
2023-03-21T00:45:51.523Z,0.14
2023-03-21T00:48:19.602Z,0.14
2023-03-21T00:50:52.426Z,0.12
2023-03-21T00:53:22.813Z,0.13
2023-03-21T00:55:51.188Z,0.15
2023-03-21T00:58:19.638Z,0.20
2023-03-21T01:00:47.600Z,0.22
2023-03-21T01:03:24.344Z,0.25
2023-03-21T01:06:04.654Z,0.26
2023-03-21T01:08:48.586Z,0.26
2023-03-21T01:11:22.817Z,0.26
2023-03-21T01:13:56.004Z,0.28
2023-03-21T01:16:26.515Z,0.28
2023-03-21T01:18:55.004Z,0.29
2023-03-21T01:21:22.961Z,0.29
2023-03-21T01:23:50.837Z,0.29
2023-03-21T01:26:18.951Z,0.28
2023-03-21T01:28:47.045Z,0.26
2023-03-21T01:31:16.509Z,0.25
2023-03-21T01:33:44.671Z,0.24
2023-03-21T01:36:20.395Z,0.22
2023-03-21T01:38:50.952Z,0.22
2023-03-21T01:41:36.737Z,0.25
2023-03-21T01:44:17.440Z,0.26
2023-03-21T01:47:03.510Z,0.27
2023-03-21T01:49:49.830Z,0.29
2023-03-21T01:52:50.039Z,0.30
2023-03-21T01:55:25.447Z,0.29
2023-03-21T01:58:14.276Z,0.29
2023-03-21T02:00:50.589Z,0.29
2023-03-21T02:03:38.650Z,0.28
2023-03-21T02:06:46.967Z,0.27
2023-03-21T02:09:33.652Z,0.26
2023-03-21T02:12:08.775Z,0.26
2023-03-21T02:14:37.729Z,0.25
2023-03-21T02:17:28.193Z,0.24
2023-03-21T02:20:17.988Z,0.24
2023-03-21T02:23:10.813Z,0.22
2023-03-21T02:25:48.272Z,0.20
2023-03-21T02:28:46.324Z,0.17
2023-03-21T02:31:42.902Z,0.17
2023-03-21T02:34:30.080Z,0.14
2023-03-21T02:37:37.730Z,0.11
2023-03-21T02:40:28.494Z,0.07
2023-03-21T02:43:24.642Z,0.01
2023-03-21T02:46:07.697Z,-0.04
2023-03-21T02:48:50.283Z,-0.07
2023-03-21T02:51:22.532Z,-0.10
2023-03-21T02:54:24.590Z,-0.11
2023-03-21T02:56:47.131Z,-0.12
2023-03-21T02:59:16.269Z,-0.13
2023-03-21T03:01:44.387Z,-0.15
2023-03-21T03:04:24.110Z,-0.17
2023-03-21T03:06:58.117Z,-0.20
2023-03-21T03:09:33.622Z,-0.21
2023-03-21T03:12:07.229Z,-0.24
2023-03-21T03:15:01.870Z,-0.26
2023-03-21T03:17:37.383Z,-0.30
2023-03-21T03:20:23.336Z,-0.35
2023-03-21T03:23:39.120Z,-0.38
2023-03-21T03:26:19.476Z,-0.40
2023-03-21T03:28:50.552Z,-0.43
2023-03-21T03:31:26.053Z,-0.45
2023-03-21T03:34:00.007Z,-0.48
2023-03-21T03:36:33.145Z,-0.49
2023-03-21T03:39:09.180Z,-0.52
2023-03-21T03:42:15.047Z,-0.54
2023-03-21T03:44:48.814Z,-0.55
2023-03-21T03:47:31.974Z,-0.57
2023-03-21T03:50:09.667Z,-0.59
2023-03-21T03:52:50.044Z,-0.61
2023-03-21T03:55:34.576Z,-0.63
2023-03-21T03:58:21.172Z,-0.66
2023-03-21T04:00:50.716Z,-0.69
2023-03-21T04:03:24.141Z,-0.69
2023-03-21T04:05:54.274Z,-0.69
2023-03-21T04:08:23.457Z,-0.69
2023-03-21T04:10:53.572Z,-0.68
2023-03-21T04:13:23.281Z,-0.68
2023-03-21T04:16:11.759Z,-0.68
2023-03-21T04:18:41.061Z,-0.68
2023-03-21T04:21:12.918Z,-0.68
2023-03-21T04:23:41.317Z,-0.65
2023-03-21T04:26:09.639Z,-0.61
2023-03-21T04:28:41.683Z,-0.55
2023-03-21T04:31:36.538Z,-0.49
2023-03-21T04:34:14.218Z,-0.45
2023-03-21T04:36:49.775Z,-0.42
2023-03-21T04:39:18.029Z,-0.40
2023-03-21T04:41:48.564Z,-0.38
2023-03-21T04:44:20.980Z,-0.36
2023-03-21T04:46:50.739Z,-0.32
2023-03-21T04:49:19.126Z,-0.23
2023-03-21T04:51:48.171Z,-0.06
2023-03-21T04:54:21.079Z,0.15
2023-03-21T04:56:49.177Z,0.44
2023-03-21T04:59:17.356Z,0.65
2023-03-21T05:01:45.746Z,0.82
2023-03-21T05:04:14.768Z,1.05
2023-03-21T05:06:42.982Z,1.32
2023-03-21T05:09:11.231Z,1.70
2023-03-21T05:11:42.639Z,2.18
2023-03-21T05:14:15.308Z,2.68
2023-03-21T05:16:53.484Z,3.23
2023-03-21T05:19:24.276Z,3.81
2023-03-21T05:21:52.220Z,4.37
2023-03-21T05:24:26.823Z,4.90
2023-03-21T05:26:56.295Z,5.45
2023-03-21T05:29:26.580Z,6.01
2023-03-21T05:32:00.247Z,6.55
2023-03-21T05:34:28.478Z,7.04
2023-03-21T05:36:56.806Z,7.46
2023-03-21T05:39:26.779Z,7.88
2023-03-21T05:42:03.977Z,8.30
2023-03-21T05:44:31.981Z,8.59
2023-03-21T05:47:00.248Z,8.91
2023-03-21T05:49:33.586Z,9.21
2023-03-21T05:52:02.230Z,9.45
2023-03-21T05:54:30.740Z,9.75
2023-03-21T05:56:59.066Z,10.11
2023-03-21T05:59:39.866Z,10.50
2023-03-21T06:02:08.173Z,10.78
2023-03-21T06:04:36.425Z,11.11
2023-03-21T06:07:04.617Z,11.38
2023-03-21T06:09:34.012Z,11.69
2023-03-21T06:12:04.297Z,11.99
2023-03-21T06:14:39.555Z,12.30
2023-03-21T06:17:37.834Z,12.57
2023-03-21T06:20:10.748Z,12.90
2023-03-21T06:22:46.856Z,13.21
2023-03-21T06:25:14.854Z,13.50
2023-03-21T06:27:43.243Z,13.84
2023-03-21T06:30:16.096Z,14.04
2023-03-21T06:32:55.436Z,14.31
2023-03-21T06:35:23.589Z,14.68
2023-03-21T06:37:52.389Z,14.97
2023-03-21T06:40:21.303Z,15.16
2023-03-21T06:42:49.671Z,15.27
2023-03-21T06:45:18.429Z,15.44
2023-03-21T06:47:48.674Z,15.64
2023-03-21T06:50:37.566Z,15.97
2023-03-21T06:53:06.140Z,16.34
2023-03-21T06:55:38.202Z,16.77
2023-03-21T06:58:07.591Z,16.96
2023-03-21T07:00:36.168Z,17.11
2023-03-21T07:03:04.930Z,17.27
2023-03-21T07:05:36.015Z,17.43
2023-03-21T07:08:06.516Z,17.55
2023-03-21T07:10:45.437Z,17.49
2023-03-21T07:13:14.964Z,17.17
2023-03-21T07:15:46.663Z,16.85
2023-03-21T07:18:18.870Z,16.70
2023-03-21T07:20:51.459Z,16.51
2023-03-21T07:23:23.594Z,16.24
2023-03-21T07:25:54.654Z,15.94
2023-03-21T07:28:23.010Z,15.65
2023-03-21T07:30:54.342Z,15.41
2023-03-21T07:33:23.708Z,15.37
2023-03-21T07:35:52.868Z,15.40
2023-03-21T07:38:27.488Z,15.21
2023-03-21T07:40:55.598Z,15.18
2023-03-21T07:43:23.682Z,15.24
2023-03-21T07:45:58.937Z,15.34
2023-03-21T07:48:28.679Z,15.46
2023-03-21T07:50:56.872Z,15.59
2023-03-21T07:53:24.755Z,15.70
2023-03-21T07:55:53.934Z,15.81
2023-03-21T07:58:25.003Z,15.75
2023-03-21T08:00:53.438Z,15.70
2023-03-21T08:03:21.847Z,15.73
2023-03-21T08:05:55.905Z,15.75
2023-03-21T08:08:24.486Z,15.70
2023-03-21T08:10:52.384Z,15.63
2023-03-21T08:13:20.859Z,15.59
2023-03-21T08:15:49.990Z,15.60
2023-03-21T08:18:17.859Z,15.55
2023-03-21T08:20:46.002Z,15.54
2023-03-21T08:23:14.409Z,15.51
2023-03-21T08:25:42.494Z,15.47
2023-03-21T08:28:10.512Z,15.47
2023-03-21T08:30:39.473Z,15.47
2023-03-21T08:33:07.680Z,15.56
2023-03-21T08:35:46.681Z,15.65
2023-03-21T08:38:14.904Z,15.75
2023-03-21T08:40:42.827Z,15.74
2023-03-21T08:43:12.283Z,15.68
2023-03-21T08:45:41.201Z,15.64
2023-03-21T08:48:10.833Z,15.59
2023-03-21T08:50:39.286Z,15.54
2023-03-21T08:53:07.298Z,15.55
2023-03-21T08:55:36.287Z,15.67
2023-03-21T08:58:04.718Z,15.89
2023-03-21T09:00:32.989Z,16.09
2023-03-21T09:03:01.571Z,16.32
2023-03-21T09:05:29.644Z,16.53
2023-03-21T09:07:58.124Z,16.65
2023-03-21T09:10:26.281Z,16.66
2023-03-21T09:12:55.466Z,16.70
2023-03-21T09:15:28.979Z,16.69
2023-03-21T09:17:58.932Z,16.66
2023-03-21T09:20:33.200Z,16.73
2023-03-21T09:23:02.046Z,16.74
2023-03-21T09:25:31.379Z,16.76
2023-03-21T09:28:05.408Z,16.77
2023-03-21T09:30:34.576Z,16.85
2023-03-21T09:33:09.763Z,16.90
2023-03-21T09:35:38.097Z,16.87
2023-03-21T09:38:06.379Z,16.85
2023-03-21T09:40:59.894Z,16.93
2023-03-21T09:43:34.308Z,17.07
2023-03-21T09:46:07.395Z,17.17
2023-03-21T09:48:56.079Z,17.22
2023-03-21T09:51:35.213Z,17.20
2023-03-21T09:54:07.511Z,17.19
2023-03-21T09:56:36.770Z,17.26
2023-03-21T09:59:07.282Z,17.32
2023-03-21T10:01:42.013Z,17.36
2023-03-21T10:04:16.338Z,17.29
2023-03-21T10:06:45.920Z,17.26
2023-03-21T10:09:21.523Z,17.26
2023-03-21T10:11:52.259Z,17.19
2023-03-21T10:14:30.686Z,17.04
2023-03-21T10:17:28.561Z,16.93
2023-03-21T10:20:17.143Z,16.92
2023-03-21T10:22:46.266Z,17.04
2023-03-21T10:25:21.457Z,17.10
2023-03-21T10:27:50.601Z,17.06
2023-03-21T10:30:40.597Z,17.01
2023-03-21T10:33:13.026Z,17.02
2023-03-21T10:35:42.296Z,17.05
2023-03-21T10:38:15.519Z,17.05
2023-03-21T10:40:44.222Z,17.02
2023-03-21T10:43:29.851Z,16.91
2023-03-21T10:45:58.447Z,16.83
2023-03-21T10:48:26.629Z,16.76
2023-03-21T10:50:55.371Z,16.58
2023-03-21T10:53:29.347Z,16.52
2023-03-21T10:55:59.630Z,16.51
2023-03-21T10:58:33.332Z,16.52
2023-03-21T11:01:02.999Z,16.53
2023-03-21T11:03:37.229Z,16.56
2023-03-21T11:06:06.761Z,16.57
2023-03-21T11:08:44.390Z,16.57
2023-03-21T11:11:20.327Z,16.61
2023-03-21T11:13:55.511Z,16.68
2023-03-21T11:16:26.318Z,16.78
2023-03-21T11:19:00.297Z,16.80
2023-03-21T11:21:29.713Z,16.79
2023-03-21T11:23:58.128Z,16.81
2023-03-21T11:26:28.268Z,16.83
2023-03-21T11:28:56.188Z,16.88
2023-03-21T11:31:37.613Z,16.92
2023-03-21T11:34:06.890Z,16.95
2023-03-21T11:36:39.079Z,17.01
2023-03-21T11:39:15.612Z,17.04
2023-03-21T11:41:47.898Z,17.13
2023-03-21T11:44:33.985Z,17.21
2023-03-21T11:47:02.457Z,17.22
2023-03-21T11:49:32.965Z,17.25
2023-03-21T11:52:14.001Z,17.27
2023-03-21T11:55:09.972Z,17.31
2023-03-21T11:57:49.016Z,17.39
2023-03-21T12:00:26.126Z,17.48
2023-03-21T12:02:59.215Z,17.54
2023-03-21T12:05:29.522Z,17.59
2023-03-21T12:08:12.301Z,17.60
2023-03-21T12:10:53.643Z,17.61
2023-03-21T12:14:02.037Z,17.67
2023-03-21T12:16:40.319Z,17.69
2023-03-21T12:19:15.900Z,17.65
2023-03-21T12:22:07.590Z,17.57
2023-03-21T12:24:47.676Z,17.44
2023-03-21T12:27:38.241Z,17.34
2023-03-21T12:30:37.292Z,17.23
2023-03-21T12:33:26.944Z,17.15
2023-03-21T12:36:14.386Z,17.03
2023-03-21T12:38:47.911Z,16.90
2023-03-21T12:41:39.285Z,16.82
2023-03-21T12:45:47.412Z,16.77
2023-03-21T12:48:21.202Z,16.74
2023-03-21T12:50:51.202Z,16.77
2023-03-21T12:53:47.824Z,16.77
2023-03-21T12:56:20.577Z,16.79
2023-03-21T12:58:56.497Z,16.82
2023-03-21T13:01:24.636Z,16.85
2023-03-21T13:04:06.706Z,16.87
2023-03-21T13:06:35.356Z,16.85
2023-03-21T13:09:10.207Z,16.85
2023-03-21T13:11:38.072Z,16.87
2023-03-21T13:14:08.619Z,16.85
2023-03-21T13:17:02.398Z,16.80
2023-03-21T13:19:37.084Z,16.78
2023-03-21T13:22:25.733Z,16.75
2023-03-21T13:25:04.718Z,16.68
2023-03-21T13:27:37.462Z,16.62
2023-03-21T13:30:26.802Z,16.49
2023-03-21T13:33:08.286Z,16.43
2023-03-21T13:35:38.815Z,16.41
2023-03-21T13:38:28.175Z,16.40
2023-03-21T13:41:01.436Z,16.37
2023-03-21T13:43:44.663Z,16.36
2023-03-21T13:46:14.559Z,16.34
2023-03-21T13:49:15.687Z,16.31
2023-03-21T13:51:51.440Z,16.30
2023-03-21T13:54:34.406Z,16.28
2023-03-21T13:57:06.212Z,16.25
2023-03-21T13:59:42.340Z,16.20
2023-03-21T14:02:13.463Z,16.16
2023-03-21T14:04:53.959Z,16.13
2023-03-21T14:07:32.401Z,16.14
2023-03-21T14:10:03.651Z,16.14
2023-03-21T14:12:42.545Z,16.15
2023-03-21T14:15:17.335Z,16.14
2023-03-21T14:17:50.794Z,16.11
2023-03-21T14:20:24.505Z,16.08
2023-03-21T14:22:52.624Z,16.03
2023-03-21T14:25:23.242Z,15.99
2023-03-21T14:27:55.344Z,15.96
2023-03-21T14:30:28.576Z,15.89
2023-03-21T14:32:57.089Z,15.80
2023-03-21T14:35:25.916Z,15.66
2023-03-21T14:37:54.199Z,15.53
2023-03-21T14:40:24.862Z,15.46
2023-03-21T14:42:53.053Z,15.40
2023-03-21T14:45:29.400Z,15.34
2023-03-21T14:48:10.891Z,15.29
2023-03-21T14:50:44.496Z,15.22
2023-03-21T14:53:18.805Z,15.13
2023-03-21T14:55:53.661Z,15.04
2023-03-21T14:58:24.137Z,14.98
2023-03-21T15:00:52.103Z,14.93
2023-03-21T15:03:20.529Z,14.89
2023-03-21T15:05:55.518Z,14.81
2023-03-21T15:08:27.168Z,14.75
2023-03-21T15:11:06.972Z,14.70
2023-03-21T15:13:49.707Z,14.66
2023-03-21T15:16:18.128Z,14.62
2023-03-21T15:18:46.877Z,14.59
2023-03-21T15:21:25.209Z,14.57
2023-03-21T15:23:54.838Z,14.52
2023-03-21T15:26:26.293Z,14.46
2023-03-21T15:28:58.809Z,14.39
2023-03-21T15:31:31.827Z,14.32
2023-03-21T15:33:59.800Z,14.23
2023-03-21T15:36:32.172Z,14.11
2023-03-21T15:39:12.561Z,13.97
2023-03-21T15:41:43.035Z,13.82
2023-03-21T15:44:14.686Z,13.69
2023-03-21T15:46:44.627Z,13.55
2023-03-21T15:49:12.885Z,13.41
2023-03-21T15:51:51.836Z,13.29
2023-03-21T15:54:27.196Z,13.19
2023-03-21T15:56:56.406Z,13.09
2023-03-21T15:59:25.668Z,13.02
2023-03-21T16:01:53.568Z,12.96
2023-03-21T16:04:26.249Z,12.90
2023-03-21T16:07:03.052Z,12.84
2023-03-21T16:09:43.241Z,12.78
2023-03-21T16:12:12.711Z,12.71
2023-03-21T16:14:42.059Z,12.63
2023-03-21T16:17:38.057Z,12.56
2023-03-21T16:20:32.607Z,12.47
2023-03-21T16:23:01.456Z,12.39
2023-03-21T16:25:33.360Z,12.33
2023-03-21T16:28:01.386Z,12.27
2023-03-21T16:30:29.560Z,12.21
2023-03-21T16:33:00.907Z,12.16
2023-03-21T16:35:29.857Z,12.10
2023-03-21T16:37:58.188Z,12.05
2023-03-21T16:40:31.704Z,12.00
2023-03-21T16:43:01.101Z,11.93
2023-03-21T16:45:32.841Z,11.86
2023-03-21T16:48:01.841Z,11.80
2023-03-21T16:50:39.740Z,11.76
2023-03-21T16:53:07.770Z,11.73
2023-03-21T16:55:35.785Z,11.71
2023-03-21T16:58:05.480Z,11.68
2023-03-21T17:00:34.106Z,11.65
2023-03-21T17:03:02.723Z,11.61
2023-03-21T17:05:31.461Z,11.57
2023-03-21T17:08:02.579Z,11.54
2023-03-21T17:10:32.642Z,11.52
2023-03-21T17:13:00.989Z,11.49
2023-03-21T17:15:29.052Z,11.46
2023-03-21T17:18:02.215Z,11.43
2023-03-21T17:20:32.617Z,11.39
2023-03-21T17:23:00.787Z,11.36
2023-03-21T17:25:29.557Z,11.33
2023-03-21T17:27:57.883Z,11.31
2023-03-21T17:30:30.992Z,11.28
2023-03-21T17:33:00.205Z,11.25
2023-03-21T17:35:28.503Z,11.23
2023-03-21T17:37:58.641Z,11.21
2023-03-21T17:40:29.027Z,11.19
2023-03-21T17:42:59.468Z,11.17
2023-03-21T17:45:27.405Z,11.15
2023-03-21T17:47:55.474Z,11.13
2023-03-21T17:50:25.938Z,11.10
2023-03-21T17:52:56.593Z,11.08
2023-03-21T17:55:29.109Z,11.06
2023-03-21T17:57:57.180Z,11.04
2023-03-21T18:00:30.313Z,11.01
2023-03-21T18:02:58.330Z,10.99
2023-03-21T18:05:27.421Z,10.95
2023-03-21T18:08:10.190Z,10.93
2023-03-21T18:10:41.091Z,10.91
2023-03-21T18:13:09.365Z,10.89
2023-03-21T18:15:44.150Z,10.86
2023-03-21T18:18:14.127Z,10.84
2023-03-21T18:20:52.505Z,10.81
2023-03-21T18:23:21.979Z,10.79
2023-03-21T18:25:52.329Z,10.75
2023-03-21T18:28:27.388Z,10.73
2023-03-21T18:31:16.742Z,10.71
2023-03-21T18:33:45.174Z,10.68
2023-03-21T18:36:25.001Z,10.65
2023-03-21T18:38:55.468Z,10.62
2023-03-21T18:41:24.102Z,10.60
2023-03-21T18:44:11.362Z,10.56
2023-03-21T18:46:42.014Z,10.53
2023-03-21T18:49:52.028Z,10.51
2023-03-21T18:52:05.062Z,10.48
2023-03-21T18:54:33.153Z,10.45
2023-03-21T18:59:49.496Z,10.37
2023-03-21T19:02:17.547Z,10.32
2023-03-21T19:04:45.587Z,10.28
2023-03-21T19:07:14.754Z,10.24
2023-03-21T19:10:05.377Z,10.19
2023-03-21T19:12:34.826Z,10.17
2023-03-21T19:15:05.930Z,10.15
2023-03-21T19:20:22.764Z,10.13
2023-03-21T19:22:51.062Z,10.14
2023-03-21T19:25:19.198Z,10.14
2023-03-21T19:27:52.056Z,10.14
2023-03-21T19:30:20.732Z,10.14
2023-03-21T19:32:49.628Z,10.15
2023-03-21T19:35:17.585Z,10.14
2023-03-21T19:37:45.700Z,10.14
2023-03-21T19:40:14.465Z,10.15
2023-03-21T19:42:43.362Z,10.15
2023-03-21T19:45:12.458Z,10.15
2023-03-21T19:47:41.467Z,10.15
2023-03-21T19:52:58.771Z,10.14
2023-03-21T19:55:27.158Z,10.13
2023-03-21T19:57:59.958Z,10.12
2023-03-21T20:00:27.907Z,10.10
2023-03-21T20:02:56.910Z,10.09
2023-03-21T20:05:26.156Z,10.08
2023-03-21T20:07:57.307Z,10.08
2023-03-21T20:10:28.346Z,10.06
2023-03-21T20:12:59.141Z,10.05
2023-03-21T20:15:39.683Z,10.04
2023-03-21T20:18:13.072Z,10.03
2023-03-21T20:20:41.496Z,10.01
2023-03-21T20:23:11.343Z,9.99
2023-03-21T20:25:42.405Z,9.97
2023-03-21T20:28:16.477Z,9.96
2023-03-21T20:30:56.624Z,9.93
2023-03-21T20:33:25.239Z,9.91
2023-03-21T20:38:52.088Z,9.86
2023-03-21T20:41:19.945Z,9.83
2023-03-21T20:46:37.853Z,9.78
2023-03-21T20:49:09.271Z,9.75
2023-03-21T20:52:44.634Z,9.73
2023-03-21T20:54:26.626Z,9.70
2023-03-21T20:56:56.858Z,9.68
2023-03-21T20:59:27.512Z,9.67
2023-03-21T21:01:57.377Z,9.65
2023-03-21T21:04:46.973Z,9.61
2023-03-21T21:07:17.384Z,9.59
2023-03-21T21:09:48.333Z,9.57
2023-03-21T21:12:19.371Z,9.56
2023-03-21T21:14:48.339Z,9.55
2023-03-21T21:20:17.589Z,9.51
2023-03-21T21:22:58.574Z,9.50
2023-03-21T21:25:29.158Z,9.49
2023-03-21T21:27:57.130Z,9.48
2023-03-21T21:30:25.139Z,9.48
2023-03-21T21:32:53.959Z,9.47
2023-03-21T21:35:22.540Z,9.48
2023-03-21T21:37:51.539Z,9.48
2023-03-21T21:40:23.029Z,9.47
2023-03-21T21:42:51.836Z,9.46
2023-03-21T21:45:20.161Z,9.43
2023-03-21T21:47:48.397Z,9.40
2023-03-21T21:50:16.773Z,9.37
2023-03-21T21:52:52.765Z,9.34
2023-03-21T21:55:25.222Z,9.32
2023-03-21T21:57:57.966Z,9.31
2023-03-21T22:00:27.519Z,9.30
2023-03-21T22:02:56.206Z,9.31
2023-03-21T22:05:24.217Z,9.31
2023-03-21T22:07:54.322Z,9.31
2023-03-21T22:10:25.435Z,9.33
2023-03-21T22:12:53.273Z,9.33
2023-03-21T22:15:28.860Z,9.35
2023-03-21T22:17:58.357Z,9.36
2023-03-21T22:20:26.287Z,9.37
2023-03-21T22:23:00.964Z,9.38
2023-03-21T22:25:33.183Z,9.38
2023-03-21T22:28:01.077Z,9.39
2023-03-21T22:30:29.077Z,9.39
2023-03-21T22:33:08.922Z,9.39
2023-03-21T22:35:42.428Z,9.40
2023-03-21T22:38:12.432Z,9.40
2023-03-21T22:40:41.506Z,9.41
2023-03-21T22:43:14.273Z,9.41
2023-03-21T22:45:42.683Z,9.40
2023-03-21T22:48:13.517Z,9.38
2023-03-21T22:50:42.286Z,9.37
2023-03-21T22:53:10.315Z,9.37
2023-03-21T22:55:38.748Z,9.37
2023-03-21T22:58:07.429Z,9.36
2023-03-21T23:00:35.506Z,9.35
2023-03-21T23:03:04.739Z,9.35
2023-03-21T23:05:33.768Z,9.34
2023-03-21T23:08:07.591Z,9.30
2023-03-21T23:10:39.513Z,9.28
2023-03-21T23:13:07.564Z,9.25
2023-03-21T23:15:40.652Z,9.24
2023-03-21T23:18:08.753Z,9.23
2023-03-21T23:20:36.646Z,9.21
2023-03-21T23:23:04.513Z,9.19
2023-03-21T23:25:33.748Z,9.16
2023-03-21T23:28:02.098Z,9.13
2023-03-21T23:30:31.058Z,9.09
2023-03-21T23:32:58.907Z,9.06
2023-03-21T23:35:28.851Z,9.03
2023-03-21T23:37:56.702Z,9.01
2023-03-21T23:40:24.574Z,8.99
2023-03-21T23:42:52.612Z,8.96
2023-03-21T23:45:20.713Z,8.93
2023-03-21T23:47:50.693Z,8.92
2023-03-21T23:50:18.793Z,8.92
2023-03-21T23:52:49.956Z,8.91
2023-03-21T23:55:18.335Z,8.89
2023-03-21T23:57:46.153Z,8.87
